createdAt,value
2023-01-11T00:00:14.642Z,-19.06
2023-01-11T00:02:41.798Z,-18.91
2023-01-11T00:05:09.734Z,-18.82
2023-01-11T00:07:36.839Z,-18.84
2023-01-11T00:10:05.091Z,-18.78
2023-01-11T00:12:32.378Z,-18.61
2023-01-11T00:14:59.597Z,-18.62
2023-01-11T00:17:29.194Z,-18.58
2023-01-11T00:19:56.368Z,-18.50
2023-01-11T00:22:23.695Z,-18.43
2023-01-11T00:24:53.147Z,-18.55
2023-01-11T00:27:20.332Z,-18.47
2023-01-11T00:29:47.510Z,-18.46
2023-01-11T00:32:14.749Z,-18.33
2023-01-11T00:34:41.881Z,-18.38
2023-01-11T00:37:10.886Z,-18.46
2023-01-11T00:39:37.930Z,-18.56
2023-01-11T00:42:23.355Z,-18.62
2023-01-11T00:45:09.157Z,-18.63
2023-01-11T00:47:54.537Z,-18.73
2023-01-11T00:50:21.727Z,-18.77
2023-01-11T00:52:48.860Z,-18.89
2023-01-11T00:55:16.236Z,-18.97
2023-01-11T00:57:43.304Z,-19.15
2023-01-11T01:00:11.127Z,-19.11
2023-01-11T01:02:38.501Z,-19.11
2023-01-11T01:05:06.407Z,-19.11
2023-01-11T01:07:33.778Z,-19.12
2023-01-11T01:10:00.815Z,-19.26
2023-01-11T01:12:46.617Z,-19.23
2023-01-11T01:15:13.882Z,-19.33
2023-01-11T01:17:40.973Z,-19.37
2023-01-11T01:20:08.911Z,-19.38
2023-01-11T01:22:36.074Z,-19.38
2023-01-11T01:25:03.260Z,-19.28
2023-01-11T01:27:30.471Z,-19.17
2023-01-11T01:29:57.584Z,-19.20
2023-01-11T01:32:24.717Z,-19.22
2023-01-11T01:34:51.881Z,-19.13
2023-01-11T01:37:19.065Z,-19.03
2023-01-11T01:39:46.209Z,-18.99
2023-01-11T01:42:18.947Z,-18.94
2023-01-11T01:44:58.353Z,-18.90
2023-01-11T01:47:34.503Z,-18.82
2023-01-11T01:50:06.833Z,-18.73
2023-01-11T01:52:34.939Z,-18.57
2023-01-11T01:55:07.816Z,-18.39
2023-01-11T01:57:38.389Z,-18.26
2023-01-11T02:00:09.004Z,-18.13
2023-01-11T02:02:37.790Z,-18.05
2023-01-11T02:05:06.425Z,-18.12
2023-01-11T02:07:35.876Z,-18.21
2023-01-11T02:10:08.406Z,-18.19
2023-01-11T02:12:40.148Z,-18.15
2023-01-11T02:15:09.763Z,-18.20
2023-01-11T02:17:39.699Z,-18.20
2023-01-11T02:20:28.375Z,-18.23
2023-01-11T02:23:09.756Z,-18.27
2023-01-11T02:25:51.630Z,-18.32
2023-01-11T02:31:43.148Z,-18.23
2023-01-11T02:34:31.741Z,-18.23
2023-01-11T02:37:30.524Z,-18.21
2023-01-11T02:40:12.561Z,-18.12
2023-01-11T02:43:02.130Z,-18.19
2023-01-11T02:45:44.519Z,-18.35
2023-01-11T02:48:23.816Z,-18.38
2023-01-11T02:50:58.616Z,-18.51
2023-01-11T02:53:36.954Z,-18.50
2023-01-11T02:56:10.445Z,-18.51
2023-01-11T02:58:40.821Z,-18.47
2023-01-11T03:01:08.587Z,-18.53
2023-01-11T03:03:36.560Z,-18.57
2023-01-11T03:06:14.074Z,-18.53
2023-01-11T03:09:02.831Z,-18.49
2023-01-11T03:12:33.985Z,-18.54
2023-01-11T03:15:32.133Z,-18.48
2023-01-11T03:18:23.323Z,-18.38
2023-01-11T03:21:16.917Z,-18.35
2023-01-11T03:24:14.666Z,-18.43
2023-01-11T03:27:02.976Z,-18.38
2023-01-11T03:29:48.750Z,-18.34
2023-01-11T03:32:18.554Z,-18.26
2023-01-11T03:34:54.642Z,-18.27
2023-01-11T03:37:48.418Z,-18.25
2023-01-11T03:40:21.948Z,-18.27
2023-01-11T03:43:14.200Z,-18.29
2023-01-11T03:46:10.664Z,-18.26
2023-01-11T03:48:45.024Z,-18.36
2023-01-11T03:51:17.591Z,-18.21
2023-01-11T03:53:48.122Z,-18.22
2023-01-11T03:56:20.398Z,-18.21
2023-01-11T03:58:47.601Z,-18.22
2023-01-11T04:01:15.185Z,-18.08
2023-01-11T04:03:42.414Z,-18.20
2023-01-11T04:06:12.185Z,-18.31
2023-01-11T04:08:39.426Z,-18.40
2023-01-11T04:11:06.822Z,-18.51
2023-01-11T04:13:34.332Z,-18.53
2023-01-11T04:16:01.566Z,-18.60
2023-01-11T04:18:28.796Z,-18.56
2023-01-11T04:20:56.024Z,-18.64
2023-01-11T04:23:23.340Z,-18.58
2023-01-11T04:25:50.612Z,-18.55
2023-01-11T04:28:17.743Z,-18.54
2023-01-11T04:30:44.917Z,-18.53
2023-01-11T04:33:13.446Z,-18.54
2023-01-11T04:35:41.258Z,-18.55
2023-01-11T04:38:08.454Z,-18.59
2023-01-11T04:40:35.563Z,-18.51
2023-01-11T04:43:02.715Z,-18.55
2023-01-11T04:45:31.080Z,-18.56
2023-01-11T04:47:58.821Z,-18.52
2023-01-11T04:50:27.578Z,-18.48
2023-01-11T04:52:54.863Z,-18.41
2023-01-11T04:55:22.222Z,-18.30
2023-01-11T04:57:50.084Z,-18.30
2023-01-11T05:00:17.572Z,-18.17
2023-01-11T05:02:44.723Z,-18.22
2023-01-11T05:05:12.339Z,-18.22
2023-01-11T05:07:39.847Z,-18.23
2023-01-11T05:10:10.817Z,-18.22
2023-01-11T05:12:38.146Z,-18.19
2023-01-11T05:15:05.888Z,-18.30
2023-01-11T05:17:33.136Z,-18.24
2023-01-11T05:20:00.351Z,-18.33
2023-01-11T05:22:27.765Z,-18.43
2023-01-11T05:24:55.242Z,-18.41
2023-01-11T05:27:22.794Z,-18.48
2023-01-11T05:29:50.107Z,-18.49
2023-01-11T05:32:21.579Z,-18.55
2023-01-11T05:34:49.165Z,-18.44
2023-01-11T05:37:16.437Z,-18.41
2023-01-11T05:39:44.074Z,-18.53
2023-01-11T05:42:11.524Z,-18.47
2023-01-11T05:44:58.717Z,-18.48
2023-01-11T05:47:26.351Z,-18.56
2023-01-11T05:49:53.602Z,-18.48
2023-01-11T05:52:21.051Z,-18.68
2023-01-11T05:54:48.363Z,-18.57
2023-01-11T05:57:15.895Z,-18.65
2023-01-11T05:59:43.273Z,-18.58
2023-01-11T06:02:10.906Z,-18.43
2023-01-11T06:04:38.352Z,-18.62
2023-01-11T06:07:06.506Z,-18.59
2023-01-11T06:09:33.693Z,-18.49
2023-01-11T06:12:00.843Z,-18.31
2023-01-11T06:14:27.898Z,-18.34
2023-01-11T06:16:55.302Z,-18.15
2023-01-11T06:19:22.519Z,-18.23
2023-01-11T06:21:49.556Z,-18.23
2023-01-11T06:24:16.747Z,-18.07
2023-01-11T06:26:43.864Z,-17.99
2023-01-11T06:29:11.862Z,-17.90
2023-01-11T06:31:39.076Z,-17.96
2023-01-11T06:34:06.214Z,-17.97
2023-01-11T06:36:33.425Z,-17.90
2023-01-11T06:39:00.516Z,-17.97
2023-01-11T06:41:29.308Z,-18.15
2023-01-11T06:43:56.782Z,-18.19
2023-01-11T06:46:24.033Z,-18.15
2023-01-11T06:48:51.281Z,-18.03
2023-01-11T06:51:18.547Z,-17.97
2023-01-11T06:53:46.696Z,-17.87
2023-01-11T06:56:16.293Z,-17.70
2023-01-11T06:58:45.589Z,-17.86
2023-01-11T07:01:14.831Z,-17.89
2023-01-11T07:03:42.220Z,-17.88
2023-01-11T07:06:09.430Z,-17.84
2023-01-11T07:08:36.699Z,-17.74
2023-01-11T07:11:04.274Z,-17.68
2023-01-11T07:13:31.441Z,-17.63
2023-01-11T07:15:58.779Z,-17.48
2023-01-11T07:18:26.424Z,-17.33
2023-01-11T07:20:53.956Z,-17.39
2023-01-11T07:23:21.192Z,-17.35
2023-01-11T07:25:50.413Z,-17.33
2023-01-11T07:28:17.772Z,-17.29
2023-01-11T07:30:57.366Z,-17.22
2023-01-11T07:33:26.835Z,-17.02
2023-01-11T07:35:54.611Z,-16.89
2023-01-11T07:38:22.746Z,-16.83
2023-01-11T07:40:50.085Z,-16.70
2023-01-11T07:43:23.458Z,-16.44
2023-01-11T07:45:53.167Z,-16.29
2023-01-11T07:48:27.366Z,-16.11
2023-01-11T07:50:55.361Z,-15.98
2023-01-11T07:53:25.907Z,-15.94
2023-01-11T07:55:56.045Z,-15.77
2023-01-11T07:58:24.337Z,-15.83
2023-01-11T08:00:51.675Z,-15.86
2023-01-11T08:03:19.050Z,-15.81
2023-01-11T08:05:53.977Z,-15.81
2023-01-11T08:08:21.526Z,-15.87
2023-01-11T08:11:09.397Z,-15.82
2023-01-11T08:13:55.265Z,-15.28
2023-01-11T08:16:22.575Z,-14.85
2023-01-11T08:18:53.453Z,-13.92
2023-01-11T08:21:30.797Z,-13.03
2023-01-11T08:23:59.425Z,-12.65
2023-01-11T08:26:28.329Z,-13.09
2023-01-11T08:28:55.422Z,-13.78
2023-01-11T08:31:23.021Z,-14.06
2023-01-11T08:37:20.819Z,-13.03
2023-01-11T08:39:49.413Z,-11.62
2023-01-11T08:42:17.125Z,-10.71
2023-01-11T08:44:45.017Z,-9.73
2023-01-11T08:47:14.646Z,-9.13
2023-01-11T08:49:43.276Z,-9.32
2023-01-11T08:52:16.611Z,-9.42
2023-01-11T08:54:44.413Z,-9.03
2023-01-11T08:57:11.828Z,-9.01
2023-01-11T08:59:39.110Z,-9.69
2023-01-11T09:02:06.976Z,-10.06
2023-01-11T09:04:34.354Z,-10.41
2023-01-11T09:07:02.416Z,-11.27
2023-01-11T09:09:30.586Z,-12.17
2023-01-11T09:11:59.204Z,-12.52
2023-01-11T09:14:27.507Z,-12.66
2023-01-11T09:16:55.789Z,-12.82
2023-01-11T09:19:24.008Z,-12.82
2023-01-11T09:21:52.374Z,-13.11
2023-01-11T09:24:19.750Z,-13.12
2023-01-11T09:26:47.137Z,-13.47
2023-01-11T09:29:14.512Z,-13.55
2023-01-11T09:31:42.354Z,-13.81
2023-01-11T09:34:12.587Z,-13.82
2023-01-11T09:36:40.477Z,-13.47
2023-01-11T09:39:14.736Z,-13.10
2023-01-11T09:41:51.746Z,-12.83
2023-01-11T09:44:25.624Z,-12.62
2023-01-11T09:47:00.120Z,-11.91
2023-01-11T09:49:31.761Z,-12.29
2023-01-11T09:52:13.511Z,-12.67
2023-01-11T09:54:41.023Z,-13.07
2023-01-11T09:57:28.164Z,-13.45
2023-01-11T10:00:10.764Z,-13.80
2023-01-11T10:03:14.047Z,-13.84
2023-01-11T10:06:06.632Z,-14.04
2023-01-11T10:18:22.037Z,-13.35
2023-01-11T10:18:53.331Z,-13.10
2023-01-11T10:21:31.991Z,-13.18
2023-01-11T10:24:12.370Z,-13.08
2023-01-11T10:26:40.252Z,-13.27
2023-01-11T10:29:51.196Z,-13.29
2023-01-11T10:32:34.856Z,-13.64
2023-01-11T10:35:34.222Z,-13.79
2023-01-11T10:38:23.305Z,-13.91
2023-01-11T10:41:04.527Z,-13.76
2023-01-11T10:43:37.749Z,-13.85
2023-01-11T10:46:18.547Z,-13.79
2023-01-11T10:48:47.329Z,-13.77
2023-01-11T10:51:37.559Z,-13.77
2023-01-11T10:54:14.658Z,-13.87
2023-01-11T10:57:03.201Z,-13.93
2023-01-11T11:00:00.225Z,-13.93
2023-01-11T11:03:13.581Z,-14.00
2023-01-11T11:06:11.590Z,-13.96
2023-01-11T11:09:23.805Z,-14.05
2023-01-11T11:11:54.455Z,-14.26
2023-01-11T11:14:37.290Z,-14.31
2023-01-11T11:17:16.625Z,-14.20
2023-01-11T11:19:43.851Z,-14.08
2023-01-11T11:22:12.531Z,-14.07
2023-01-11T11:24:45.809Z,-14.24
2023-01-11T11:27:40.801Z,-14.28
2023-01-11T11:30:12.477Z,-14.32
2023-01-11T11:32:44.609Z,-14.19
2023-01-11T11:36:02.395Z,-14.25
2023-01-11T11:38:35.432Z,-14.33
2023-01-11T11:41:08.751Z,-14.29
2023-01-11T11:43:41.522Z,-14.20
2023-01-11T11:46:19.504Z,-14.20
2023-01-11T11:49:25.777Z,-14.36
2023-01-11T11:51:54.232Z,-14.39
2023-01-11T11:54:23.260Z,-14.39
2023-01-11T11:56:51.078Z,-14.53
2023-01-11T11:59:23.379Z,-14.65
2023-01-11T12:01:58.267Z,-14.65
2023-01-11T12:04:49.473Z,-14.70
2023-01-11T12:07:22.461Z,-14.69
2023-01-11T12:09:57.603Z,-14.61
2023-01-11T12:12:27.867Z,-14.50
2023-01-11T12:15:25.208Z,-14.51
2023-01-11T12:17:52.675Z,-14.57
2023-01-11T12:20:22.819Z,-14.51
2023-01-11T12:23:19.491Z,-14.47
2023-01-11T12:25:52.619Z,-14.49
2023-01-11T12:28:44.405Z,-14.56
2023-01-11T12:31:21.050Z,-14.65
2023-01-11T12:34:34.573Z,-14.62
2023-01-11T12:37:45.358Z,-14.72
2023-01-11T12:40:33.663Z,-14.80
2023-01-11T12:43:25.711Z,-14.76
2023-01-11T12:46:04.877Z,-14.82
2023-01-11T12:49:01.467Z,-14.75
2023-01-11T12:51:37.696Z,-14.75
2023-01-11T12:54:25.695Z,-14.78
2023-01-11T12:57:17.930Z,-14.75
2023-01-11T13:00:06.698Z,-14.77
2023-01-11T13:03:02.728Z,-14.79
2023-01-11T13:05:47.862Z,-14.83
2023-01-11T13:08:38.344Z,-14.84
2023-01-11T13:11:35.479Z,-14.73
2023-01-11T13:14:25.843Z,-14.75
2023-01-11T13:17:08.354Z,-14.79
2023-01-11T13:19:57.350Z,-14.78
2023-01-11T13:22:31.019Z,-14.84
2023-01-11T13:24:59.582Z,-14.81
2023-01-11T13:27:31.951Z,-14.82
2023-01-11T13:30:12.819Z,-14.89
2023-01-11T13:32:43.386Z,-14.84
2023-01-11T13:35:20.408Z,-14.85
2023-01-11T13:37:53.892Z,-14.68
2023-01-11T13:40:31.040Z,-14.65
2023-01-11T13:43:04.099Z,-14.78
2023-01-11T13:45:36.459Z,-14.81
2023-01-11T13:48:12.555Z,-14.80
2023-01-11T13:51:06.021Z,-14.79
2023-01-11T13:53:48.325Z,-14.69
2023-01-11T13:56:19.112Z,-14.70
2023-01-11T13:58:57.089Z,-14.71
2023-01-11T14:01:42.750Z,-14.60
2023-01-11T14:04:21.430Z,-14.62
2023-01-11T14:07:13.913Z,-14.58
2023-01-11T14:10:06.092Z,-14.57
2023-01-11T14:12:43.473Z,-14.59
2023-01-11T14:15:31.812Z,-14.69
2023-01-11T14:18:30.528Z,-14.66
2023-01-11T14:21:12.948Z,-14.55
2023-01-11T14:23:57.955Z,-14.67
2023-01-11T14:26:55.256Z,-14.65
2023-01-11T14:30:08.079Z,-14.68
2023-01-11T14:32:57.454Z,-14.71
2023-01-11T14:48:41.386Z,-14.76
2023-01-11T14:51:22.151Z,-14.69
2023-01-11T14:54:01.974Z,-14.67
2023-01-11T14:56:44.458Z,-14.63
2023-01-11T14:59:24.941Z,-14.62
2023-01-11T15:02:05.207Z,-14.59
2023-01-11T15:04:52.767Z,-14.72
2023-01-11T15:07:24.958Z,-14.58
2023-01-11T15:09:54.100Z,-14.77
2023-01-11T15:12:24.737Z,-14.72
2023-01-11T15:15:03.108Z,-14.89
2023-01-11T15:17:50.802Z,-14.81
2023-01-11T15:20:21.628Z,-14.84
2023-01-11T15:23:01.613Z,-14.94
2023-01-11T15:25:33.777Z,-14.93
2023-01-11T15:28:06.005Z,-14.86
2023-01-11T15:30:34.879Z,-14.70
2023-01-11T15:36:12.524Z,-14.63
2023-01-11T15:39:00.469Z,-14.60
2023-01-11T15:42:00.449Z,-14.65
2023-01-11T15:44:49.400Z,-14.64
2023-01-11T15:47:32.138Z,-14.49
2023-01-11T15:50:39.339Z,-14.52
2023-01-11T15:53:07.690Z,-14.54
2023-01-11T15:55:59.853Z,-14.53
2023-01-11T15:58:48.900Z,-14.48
2023-01-11T16:01:25.386Z,-14.65
2023-01-11T16:04:05.605Z,-14.39
2023-01-11T16:06:47.729Z,-14.47
2023-01-11T16:09:33.575Z,-14.60
2023-01-11T16:12:44.999Z,-14.69
2023-01-11T16:15:30.271Z,-14.73
2023-01-11T16:18:11.261Z,-14.78
2023-01-11T16:20:56.049Z,-14.81
2023-01-11T16:23:26.449Z,-14.64
2023-01-11T16:25:57.387Z,-14.69
2023-01-11T16:28:25.868Z,-14.86
2023-01-11T16:31:07.339Z,-14.78
2023-01-11T16:33:35.887Z,-14.66
2023-01-11T16:36:12.378Z,-14.84
2023-01-11T16:39:04.743Z,-14.78
2023-01-11T16:41:46.919Z,-14.84
2023-01-11T16:44:31.223Z,-14.62
2023-01-11T16:47:05.806Z,-14.48
2023-01-11T16:49:34.131Z,-14.61
2023-01-11T16:52:22.466Z,-14.60
2023-01-11T16:54:50.353Z,-14.54
2023-01-11T16:57:20.449Z,-14.48
2023-01-11T17:00:02.409Z,-14.38
2023-01-11T17:02:36.018Z,-14.40
2023-01-11T17:05:03.921Z,-14.47
2023-01-11T17:07:37.091Z,-14.75
2023-01-11T17:10:20.148Z,-14.56
2023-01-11T17:12:57.676Z,-14.63
2023-01-11T17:15:49.671Z,-14.56
2023-01-11T17:18:23.475Z,-14.66
2023-01-11T17:20:54.816Z,-14.56
2023-01-11T17:23:33.518Z,-14.76
2023-01-11T17:26:02.873Z,-14.84
2023-01-11T17:28:38.286Z,-14.76
2023-01-11T17:31:24.906Z,-14.65
2023-01-11T17:34:05.707Z,-14.69
2023-01-11T17:36:33.975Z,-14.72
2023-01-11T17:39:03.310Z,-14.70
2023-01-11T17:41:50.147Z,-14.72
2023-01-11T17:44:43.403Z,-14.50
2023-01-11T17:47:14.078Z,-14.52
2023-01-11T17:49:43.392Z,-14.59
2023-01-11T17:52:18.893Z,-14.65
2023-01-11T17:55:22.309Z,-14.63
2023-01-11T17:58:19.211Z,-14.45
2023-01-11T18:01:10.155Z,-14.47
2023-01-11T18:03:50.673Z,-14.70
2023-01-11T18:06:27.528Z,-14.57
2023-01-11T18:08:58.546Z,-14.50
2023-01-11T18:11:39.381Z,-14.35
2023-01-11T18:14:17.736Z,-14.31
2023-01-11T18:17:07.438Z,-14.43
2023-01-11T18:19:40.663Z,-14.46
2023-01-11T18:22:31.606Z,-14.45
2023-01-11T18:25:04.699Z,-14.71
2023-01-11T18:27:34.270Z,-14.64
2023-01-11T18:30:07.807Z,-14.59
2023-01-11T18:32:42.743Z,-14.60
2023-01-11T18:35:19.129Z,-14.64
2023-01-11T18:37:47.755Z,-14.56
2023-01-11T18:40:16.838Z,-14.57
2023-01-11T18:42:51.987Z,-14.37
2023-01-11T18:45:20.810Z,-14.39
2023-01-11T18:47:48.915Z,-14.38
2023-01-11T18:50:19.345Z,-14.23
2023-01-11T18:52:47.463Z,-14.36
2023-01-11T18:55:15.334Z,-14.39
2023-01-11T18:57:42.680Z,-14.23
2023-01-11T19:00:15.240Z,-14.17
2023-01-11T19:02:44.102Z,-14.25
2023-01-11T19:05:13.608Z,-14.42
2023-01-11T19:07:41.012Z,-14.39
2023-01-11T19:10:09.014Z,-14.43
2023-01-11T19:12:38.824Z,-14.39
2023-01-11T19:15:15.973Z,-14.31
2023-01-11T19:17:48.528Z,-14.24
2023-01-11T19:20:16.257Z,-14.18
2023-01-11T19:22:44.506Z,-14.23
2023-01-11T19:25:12.284Z,-14.28
2023-01-11T19:27:41.987Z,-14.29
2023-01-11T19:30:11.159Z,-14.31
2023-01-11T19:32:38.876Z,-14.21
2023-01-11T19:35:08.291Z,-14.23
2023-01-11T19:37:38.108Z,-14.21
2023-01-11T19:40:06.627Z,-14.31
2023-01-11T19:42:34.025Z,-14.32
2023-01-11T19:45:01.413Z,-14.28
2023-01-11T19:47:28.676Z,-14.19
2023-01-11T19:49:59.114Z,-14.09
2023-01-11T19:52:26.360Z,-14.11
2023-01-11T19:54:57.179Z,-14.04
2023-01-11T19:57:24.494Z,-14.08
2023-01-11T19:59:51.819Z,-14.04
2023-01-11T20:02:20.696Z,-14.07
2023-01-11T20:04:48.230Z,-13.85
2023-01-11T20:07:16.072Z,-13.83
2023-01-11T20:09:44.032Z,-13.73
2023-01-11T20:12:13.474Z,-13.73
2023-01-11T20:14:40.994Z,-13.76
2023-01-11T20:17:08.632Z,-13.67
2023-01-11T20:19:35.948Z,-13.75
2023-01-11T20:22:03.398Z,-13.79
2023-01-11T20:24:31.825Z,-13.79
2023-01-11T20:27:00.860Z,-13.76
2023-01-11T20:29:28.345Z,-13.82
2023-01-11T20:31:58.202Z,-13.73
2023-01-11T20:34:30.420Z,-13.68
2023-01-11T20:36:57.844Z,-13.69
2023-01-11T20:39:26.154Z,-13.71
2023-01-11T20:42:03.157Z,-13.76
2023-01-11T20:44:32.300Z,-13.69
2023-01-11T20:46:59.927Z,-13.66
2023-01-11T20:49:31.657Z,-13.67
2023-01-11T20:51:59.698Z,-13.59
2023-01-11T20:54:27.354Z,-13.60
2023-01-11T20:56:54.794Z,-13.58
2023-01-11T20:59:21.955Z,-13.66
2023-01-11T21:01:50.400Z,-13.57
2023-01-11T21:04:18.805Z,-13.57
2023-01-11T21:06:51.017Z,-13.70
2023-01-11T21:09:19.250Z,-13.66
2023-01-11T21:11:53.481Z,-13.55
2023-01-11T21:14:22.390Z,-13.52
2023-01-11T21:16:50.032Z,-13.53
2023-01-11T21:19:17.700Z,-13.52
2023-01-11T21:21:44.955Z,-13.47
2023-01-11T21:24:14.102Z,-13.38
2023-01-11T21:26:42.971Z,-13.43
2023-01-11T21:29:11.876Z,-13.29
2023-01-11T21:31:40.310Z,-13.30
2023-01-11T21:34:08.074Z,-13.38
2023-01-11T21:36:35.554Z,-13.42
2023-01-11T21:39:03.713Z,-13.38
2023-01-11T21:44:32.502Z,-13.43
2023-01-11T21:47:05.497Z,-13.53
2023-01-11T21:49:33.667Z,-13.57
2023-01-11T21:52:01.158Z,-13.40
2023-01-11T21:54:28.453Z,-13.39
2023-01-11T21:56:55.956Z,-13.29
2023-01-11T21:59:57.340Z,-13.26
2023-01-11T22:02:24.535Z,-13.33
2023-01-11T22:04:56.565Z,-13.41
2023-01-11T22:07:27.974Z,-13.42
2023-01-11T22:10:04.417Z,-13.56
2023-01-11T22:12:34.093Z,-13.41
2023-01-11T22:15:01.626Z,-13.47
2023-01-11T22:17:28.907Z,-13.50
2023-01-11T22:22:48.140Z,-13.59
2023-01-11T22:25:15.893Z,-13.46
2023-01-11T22:27:43.325Z,-13.42
2023-01-11T22:30:12.051Z,-13.47
2023-01-11T22:32:40.941Z,-13.48
2023-01-11T22:35:08.889Z,-13.35
2023-01-11T22:37:36.149Z,-13.38
2023-01-11T22:40:07.758Z,-13.37
2023-01-11T22:42:35.277Z,-13.35
2023-01-11T22:45:04.041Z,-13.30
2023-01-11T22:47:31.870Z,-13.34
2023-01-11T22:49:59.119Z,-13.27
2023-01-11T22:52:26.393Z,-13.19
2023-01-11T22:54:53.737Z,-13.09
2023-01-11T22:57:21.741Z,-13.11
2023-01-11T22:59:49.100Z,-12.83
2023-01-11T23:02:17.188Z,-13.10
2023-01-11T23:04:44.520Z,-13.20
2023-01-11T23:07:12.363Z,-13.06
2023-01-11T23:09:39.660Z,-13.19
2023-01-11T23:12:25.699Z,-13.25
2023-01-11T23:14:53.226Z,-13.26
2023-01-11T23:17:20.959Z,-13.16
2023-01-11T23:19:48.172Z,-13.14
2023-01-11T23:22:17.013Z,-12.96
2023-01-11T23:24:44.356Z,-12.84
2023-01-11T23:27:11.591Z,-12.64
2023-01-11T23:29:39.346Z,-12.66
2023-01-11T23:32:06.721Z,-12.65
2023-01-11T23:34:34.131Z,-12.64
2023-01-11T23:37:01.322Z,-12.66
2023-01-11T23:39:28.419Z,-12.78
2023-01-11T23:42:14.186Z,-12.88
2023-01-11T23:44:41.438Z,-12.80
2023-01-11T23:47:29.840Z,-12.83
2023-01-11T23:50:00.661Z,-12.78
2023-01-11T23:52:30.502Z,-12.91
2023-01-11T23:54:58.040Z,-12.70
2023-01-11T23:57:26.416Z,-12.73
2023-01-11T23:59:53.703Z,-12.70
